createdAt,value
2018-06-10T00:01:06.136Z,98481.00
2018-06-10T00:03:35.044Z,98477.00
2018-06-10T00:06:03.995Z,98472.00
2018-06-10T00:08:32.886Z,98479.00
2018-06-10T00:11:01.546Z,98471.00
2018-06-10T00:13:30.210Z,98479.00
2018-06-10T00:15:58.898Z,98485.00
2018-06-10T00:18:29.345Z,98493.00
2018-06-10T00:20:59.700Z,98488.00
2018-06-10T00:23:29.246Z,98489.00
2018-06-10T00:25:58.125Z,98485.00
2018-06-10T00:28:32.626Z,98487.00
2018-06-10T00:31:01.526Z,98487.00
2018-06-10T00:33:30.482Z,98489.00
2018-06-10T00:35:59.384Z,98491.00
2018-06-10T00:38:28.323Z,98494.00
2018-06-10T00:40:57.229Z,98500.00
2018-06-10T00:43:26.135Z,98502.00
2018-06-10T00:45:55.048Z,98500.00
2018-06-10T00:48:26.449Z,98500.00
2018-06-10T00:50:55.370Z,98494.00
2018-06-10T00:53:24.290Z,98492.00
2018-06-10T00:55:53.222Z,98493.00
2018-06-10T00:58:22.137Z,98500.00
2018-06-10T01:00:51.055Z,98491.00
2018-06-10T01:03:20.591Z,98486.00
2018-06-10T01:05:49.512Z,98487.00
2018-06-10T01:08:18.420Z,98477.00
2018-06-10T01:10:47.382Z,98479.00
2018-06-10T01:13:16.487Z,98487.00
2018-06-10T01:15:45.417Z,98492.00
2018-06-10T01:18:14.442Z,98491.00
2018-06-10T01:20:43.136Z,98495.00
2018-06-10T01:23:11.798Z,98497.00
2018-06-10T01:25:40.430Z,98490.00
2018-06-10T01:28:09.100Z,98487.00
2018-06-10T01:30:37.707Z,98487.00
2018-06-10T01:33:06.312Z,98487.00
2018-06-10T01:35:34.980Z,98485.00
2018-06-10T01:38:03.579Z,98491.00
2018-06-10T01:40:32.187Z,98485.00
2018-06-10T01:43:00.774Z,98492.00
2018-06-10T01:45:29.375Z,98489.00
2018-06-10T01:47:57.965Z,98479.00
2018-06-10T01:50:26.563Z,98480.00
2018-06-10T01:52:55.180Z,98482.00
2018-06-10T01:55:23.812Z,98484.00
2018-06-10T01:57:52.404Z,98489.00
2018-06-10T02:00:21.168Z,98488.00
2018-06-10T02:02:50.043Z,98490.00
2018-06-10T02:05:18.922Z,98492.00
2018-06-10T02:07:47.815Z,98492.00
2018-06-10T02:10:16.770Z,98490.00
2018-06-10T02:12:45.643Z,98490.00
2018-06-10T02:15:14.575Z,98487.00
2018-06-10T02:17:43.487Z,98487.00
2018-06-10T02:20:12.442Z,98484.00
2018-06-10T02:22:41.131Z,98482.00
2018-06-10T02:25:09.818Z,98480.00
2018-06-10T02:27:38.435Z,98480.00
2018-06-10T02:30:07.113Z,98477.00
2018-06-10T02:32:38.157Z,98476.00
2018-06-10T02:35:06.896Z,98473.00
2018-06-10T02:37:35.538Z,98470.00
2018-06-10T02:40:04.289Z,98477.00
2018-06-10T02:42:32.929Z,98477.00
2018-06-10T02:45:01.543Z,98475.00
2018-06-10T02:47:30.166Z,98482.00
2018-06-10T02:49:58.768Z,98474.00
2018-06-10T02:52:27.363Z,98470.00
2018-06-10T02:54:56.224Z,98471.00
2018-06-10T02:57:24.863Z,98467.00
2018-06-10T02:59:53.464Z,98469.00
2018-06-10T03:02:22.066Z,98473.00
2018-06-10T03:04:50.711Z,98483.00
2018-06-10T03:07:19.331Z,98487.00
2018-06-10T03:09:47.951Z,98486.00
2018-06-10T03:12:16.595Z,98487.00
2018-06-10T03:14:45.211Z,98482.00
2018-06-10T03:17:13.882Z,98489.00
2018-06-10T03:19:42.538Z,98494.00
2018-06-10T03:22:11.183Z,98494.00
2018-06-10T03:24:39.863Z,98496.00
2018-06-10T03:27:08.520Z,98500.00
2018-06-10T03:29:37.184Z,98500.00
2018-06-10T03:32:05.907Z,98498.00
2018-06-10T03:34:34.516Z,98495.00
2018-06-10T03:37:03.118Z,98501.00
2018-06-10T03:39:31.831Z,98503.00
2018-06-10T03:42:00.683Z,98501.00
2018-06-10T03:44:29.539Z,98501.00
2018-06-10T03:46:58.438Z,98498.00
2018-06-10T03:49:27.228Z,98493.00
2018-06-10T03:51:55.870Z,98491.00
2018-06-10T03:54:24.606Z,98490.00
2018-06-10T03:56:53.296Z,98484.00
2018-06-10T03:59:21.981Z,98491.00
2018-06-10T04:01:50.663Z,98493.00
2018-06-10T04:04:19.335Z,98498.00
2018-06-10T04:06:47.993Z,98504.00
2018-06-10T04:09:16.743Z,98510.00
2018-06-10T04:11:45.743Z,98513.00
2018-06-10T04:14:14.677Z,98512.00
2018-06-10T04:16:43.596Z,98513.00
2018-06-10T04:19:12.571Z,98509.00
2018-06-10T04:21:41.266Z,98503.00
2018-06-10T04:24:10.019Z,98507.00
2018-06-10T04:26:38.650Z,98512.00
2018-06-10T04:29:07.323Z,98505.00
2018-06-10T04:31:36.003Z,98499.00
2018-06-10T04:34:04.740Z,98497.00
2018-06-10T04:36:33.411Z,98501.00
2018-06-10T04:39:02.147Z,98504.00
2018-06-10T04:41:30.803Z,98506.00
2018-06-10T04:43:59.485Z,98506.00
2018-06-10T04:46:28.091Z,98510.00
2018-06-10T04:48:56.886Z,98511.00
2018-06-10T04:51:25.788Z,98509.00
2018-06-10T04:53:54.678Z,98505.00
2018-06-10T04:56:23.670Z,98505.00
2018-06-10T04:58:52.546Z,98445.00
2018-06-10T05:01:21.476Z,98507.00
2018-06-10T05:03:50.415Z,98507.00
2018-06-10T05:06:19.339Z,98509.00
2018-06-10T05:08:48.240Z,98509.00
2018-06-10T05:11:16.835Z,98516.00
2018-06-10T05:13:45.512Z,98521.00
2018-06-10T05:16:14.149Z,98520.00
2018-06-10T05:18:42.885Z,98512.00
2018-06-10T05:21:11.625Z,98516.00
2018-06-10T05:23:40.051Z,98516.00
2018-06-10T05:26:08.665Z,98513.00
2018-06-10T05:28:37.518Z,98509.00
2018-06-10T05:31:06.489Z,98513.00
2018-06-10T05:33:35.493Z,98520.00
2018-06-10T05:36:04.401Z,98517.00
2018-06-10T05:38:33.273Z,98527.00
2018-06-10T05:41:01.931Z,98520.00
2018-06-10T05:43:30.403Z,98522.00
2018-06-10T05:45:59.033Z,98525.00
2018-06-10T05:48:27.695Z,98521.00
2018-06-10T05:50:56.621Z,98520.00
2018-06-10T05:53:25.586Z,98523.00
2018-06-10T05:55:54.809Z,98523.00
2018-06-10T05:58:23.526Z,98529.00
2018-06-10T06:00:52.109Z,98530.00
2018-06-10T06:03:20.941Z,98525.00
2018-06-10T06:05:49.573Z,98525.00
2018-06-10T06:08:18.323Z,98525.00
2018-06-10T06:10:47.259Z,98525.00
2018-06-10T06:13:16.186Z,98525.00
2018-06-10T06:15:45.084Z,98523.00
2018-06-10T06:18:13.933Z,98518.00
2018-06-10T06:20:42.592Z,98522.00
2018-06-10T06:23:11.221Z,98523.00
2018-06-10T06:25:39.896Z,98531.00
2018-06-10T06:28:08.551Z,98528.00
2018-06-10T06:30:37.191Z,98532.00
2018-06-10T06:33:05.776Z,98534.00
2018-06-10T06:35:34.396Z,98539.00
2018-06-10T06:38:03.023Z,98534.00
2018-06-10T06:40:31.685Z,98527.00
2018-06-10T06:43:00.355Z,98528.00
2018-06-10T06:45:28.926Z,98527.00
2018-06-10T06:47:57.593Z,98523.00
2018-06-10T06:50:26.239Z,98524.00
2018-06-10T06:52:55.011Z,98531.00
2018-06-10T06:55:23.657Z,98525.00
2018-06-10T06:57:52.386Z,98531.00
2018-06-10T07:00:20.952Z,98534.00
2018-06-10T07:02:50.340Z,98531.00
2018-06-10T07:05:19.037Z,98528.00
2018-06-10T07:07:47.784Z,98521.00
2018-06-10T07:10:16.679Z,98516.00
2018-06-10T07:12:45.578Z,98514.00
2018-06-10T07:15:14.531Z,98510.00
2018-06-10T07:17:43.465Z,98513.00
2018-06-10T07:20:12.174Z,98525.00
2018-06-10T07:22:40.831Z,98523.00
2018-06-10T07:25:09.491Z,98533.00
2018-06-10T07:27:38.570Z,98533.00
2018-06-10T07:30:07.501Z,98527.00
2018-06-10T07:32:36.396Z,98524.00
2018-06-10T07:35:05.424Z,98524.00
2018-06-10T07:37:34.400Z,98526.00
2018-06-10T07:40:03.036Z,98525.00
2018-06-10T07:42:31.698Z,98527.00
2018-06-10T07:45:00.263Z,98524.00
2018-06-10T07:47:28.816Z,98513.00
2018-06-10T07:49:57.386Z,98507.00
2018-06-10T07:52:25.938Z,98503.00
2018-06-10T07:54:54.316Z,98500.00
2018-06-10T07:57:22.957Z,98493.00
2018-06-10T07:59:51.775Z,98492.00
2018-06-10T08:02:21.349Z,98492.00
2018-06-10T08:04:50.183Z,98495.00
2018-06-10T08:07:19.008Z,98506.00
2018-06-10T08:09:47.831Z,98507.00
2018-06-10T08:12:16.658Z,98504.00
2018-06-10T08:14:45.465Z,98508.00
2018-06-10T08:17:14.275Z,98510.00
2018-06-10T08:19:42.836Z,98515.00
2018-06-10T08:22:11.402Z,98518.00
2018-06-10T08:24:39.951Z,98514.00
2018-06-10T08:27:08.614Z,98516.00
2018-06-10T08:29:37.415Z,98513.00
2018-06-10T08:32:06.264Z,98515.00
2018-06-10T08:34:35.083Z,98514.00
2018-06-10T08:37:03.858Z,98508.00
2018-06-10T08:39:32.628Z,98501.00
2018-06-10T08:42:01.429Z,98502.00
2018-06-10T08:44:29.984Z,98507.00
2018-06-10T08:46:58.692Z,98513.00
2018-06-10T08:49:27.531Z,98520.00
2018-06-10T08:51:56.406Z,98526.00
2018-06-10T08:54:25.223Z,98529.00
2018-06-10T08:56:54.050Z,98532.00
2018-06-10T08:59:22.955Z,98530.00
2018-06-10T09:01:51.755Z,98523.00
2018-06-10T09:04:20.591Z,98521.00
2018-06-10T09:06:50.571Z,98521.00
2018-06-10T09:09:19.498Z,98520.00
2018-06-10T09:11:48.496Z,98516.00
2018-06-10T09:14:17.512Z,98511.00
2018-06-10T09:16:46.412Z,98514.00
2018-06-10T09:19:15.082Z,98508.00
2018-06-10T09:21:44.276Z,98508.00
2018-06-10T09:24:12.897Z,98508.00
2018-06-10T09:26:41.514Z,98509.00
2018-06-10T09:29:10.394Z,98505.00
2018-06-10T09:31:39.291Z,98506.00
2018-06-10T09:34:08.235Z,98500.00
2018-06-10T09:36:37.099Z,98505.00
2018-06-10T09:39:07.919Z,98499.00
2018-06-10T09:41:36.526Z,98503.00
2018-06-10T09:44:05.149Z,98500.00
2018-06-10T09:46:33.799Z,98497.00
2018-06-10T09:49:02.359Z,98496.00
2018-06-10T09:51:30.939Z,98495.00
2018-06-10T09:53:59.531Z,98494.00
2018-06-10T09:56:28.323Z,98484.00
2018-06-10T09:58:57.299Z,98489.00
2018-06-10T10:01:26.259Z,98484.00
2018-06-10T10:03:55.349Z,98479.00
2018-06-10T10:06:24.296Z,98477.00
2018-06-10T10:08:53.737Z,98479.00
2018-06-10T10:11:22.626Z,98475.00
2018-06-10T10:13:51.576Z,98470.00
2018-06-10T10:16:20.484Z,98468.00
2018-06-10T10:18:49.211Z,98462.00
2018-06-10T10:21:17.954Z,98452.00
2018-06-10T10:23:46.666Z,98447.00
2018-06-10T10:26:15.356Z,98440.00
2018-06-10T10:28:44.806Z,98442.00
2018-06-10T10:31:13.553Z,98443.00
2018-06-10T10:33:42.224Z,98437.00
2018-06-10T10:36:11.024Z,98429.00
2018-06-10T10:38:39.925Z,98419.00
2018-06-10T10:41:08.999Z,98418.00
2018-06-10T10:43:37.931Z,98416.00
2018-06-10T10:46:07.056Z,98412.00
2018-06-10T10:48:36.299Z,98409.00
2018-06-10T10:51:05.319Z,98414.00
2018-06-10T10:53:35.031Z,98409.00
2018-06-10T10:56:03.848Z,98399.00
2018-06-10T10:58:32.507Z,98402.00
2018-06-10T11:01:01.221Z,98399.00
2018-06-10T11:03:29.996Z,98399.00
2018-06-10T11:05:58.648Z,98396.00
2018-06-10T11:08:27.235Z,98394.00
2018-06-10T11:10:55.884Z,98395.00
2018-06-10T11:13:24.516Z,98400.00
2018-06-10T11:15:53.163Z,98405.00
2018-06-10T11:18:21.789Z,98413.00
2018-06-10T11:20:50.408Z,98410.00
2018-06-10T11:23:19.003Z,98408.00
2018-06-10T11:25:47.737Z,98401.00
2018-06-10T11:28:16.678Z,98394.00
2018-06-10T11:30:45.844Z,98379.00
2018-06-10T11:33:14.747Z,98375.00
2018-06-10T11:35:44.025Z,98369.00
2018-06-10T11:38:12.603Z,98374.00
2018-06-10T11:40:41.170Z,98361.00
2018-06-10T11:43:09.568Z,98358.00
2018-06-10T11:45:38.408Z,98358.00
2018-06-10T11:48:07.328Z,98360.00
2018-06-10T11:50:36.259Z,98351.00
2018-06-10T11:53:05.128Z,98347.00
2018-06-10T11:55:33.945Z,98339.00
2018-06-10T11:58:03.435Z,98333.00
2018-06-10T12:00:32.362Z,98327.00
2018-06-10T12:03:01.292Z,98321.00
2018-06-10T12:05:30.188Z,98315.00
2018-06-10T12:07:59.095Z,98318.00
2018-06-10T12:10:28.052Z,98311.00
2018-06-10T12:12:58.020Z,98310.00
2018-06-10T12:15:27.096Z,98318.00
2018-06-10T12:17:55.895Z,98316.00
2018-06-10T12:20:24.772Z,98309.00
2018-06-10T12:22:53.485Z,98316.00
2018-06-10T12:25:22.015Z,98315.00
2018-06-10T12:27:50.610Z,98312.00
2018-06-10T12:30:19.232Z,98313.00
2018-06-10T12:32:47.872Z,98319.00
2018-06-10T12:35:16.754Z,98324.00
2018-06-10T12:37:45.614Z,98319.00
2018-06-10T12:40:14.554Z,98321.00
2018-06-10T12:42:43.486Z,98321.00
2018-06-10T12:45:12.385Z,98319.00
2018-06-10T12:47:41.357Z,98314.00
2018-06-10T12:50:10.218Z,98312.00
2018-06-10T12:52:39.097Z,98313.00
2018-06-10T12:55:07.979Z,98318.00
2018-06-10T12:57:36.626Z,98325.00
2018-06-10T13:00:06.264Z,98327.00
2018-06-10T13:02:34.964Z,98324.00
2018-06-10T13:05:03.604Z,98328.00
2018-06-10T13:07:32.236Z,98323.00
2018-06-10T13:10:00.839Z,98320.00
2018-06-10T13:12:29.431Z,98321.00
2018-06-10T13:14:58.441Z,98323.00
2018-06-10T13:17:27.156Z,98318.00
2018-06-10T13:19:55.914Z,98306.00
2018-06-10T13:22:24.613Z,98310.00
2018-06-10T13:24:53.419Z,98311.00
2018-06-10T13:27:22.331Z,98301.00
2018-06-10T13:29:52.304Z,98291.00
2018-06-10T13:32:21.233Z,98292.00
2018-06-10T13:34:50.099Z,98299.00
2018-06-10T13:37:19.080Z,98293.00
2018-06-10T13:39:48.084Z,98284.00
2018-06-10T13:42:16.926Z,98284.00
2018-06-10T13:44:45.758Z,98280.00
2018-06-10T13:47:14.405Z,98277.00
2018-06-10T13:49:43.051Z,98284.00
2018-06-10T13:52:11.684Z,98282.00
2018-06-10T13:54:40.287Z,98265.00
2018-06-10T13:57:09.169Z,98261.00
2018-06-10T13:59:38.027Z,98269.00
2018-06-10T14:02:07.464Z,98264.00
2018-06-10T14:04:36.051Z,98266.00
2018-06-10T14:07:04.698Z,98260.00
2018-06-10T14:09:33.349Z,98258.00
2018-06-10T14:12:02.099Z,98262.00
2018-06-10T14:14:30.749Z,98265.00
2018-06-10T14:16:59.379Z,98262.00
2018-06-10T14:19:28.339Z,98265.00
2018-06-10T14:21:57.361Z,98265.00
2018-06-10T14:24:27.696Z,98258.00
2018-06-10T14:26:58.482Z,98254.00
2018-06-10T14:29:27.183Z,98244.00
2018-06-10T14:31:55.841Z,98251.00
2018-06-10T14:34:24.575Z,98249.00
2018-06-10T14:36:53.244Z,98248.00
2018-06-10T14:39:22.664Z,98252.00
2018-06-10T14:41:51.139Z,98253.00
2018-06-10T14:44:20.037Z,98248.00
2018-06-10T14:46:48.711Z,98245.00
2018-06-10T14:49:17.602Z,98246.00
2018-06-10T14:51:46.543Z,98242.00
2018-06-10T14:54:15.503Z,98238.00
2018-06-10T14:56:45.063Z,98243.00
2018-06-10T14:59:14.014Z,98241.00
2018-06-10T15:01:42.979Z,98242.00
2018-06-10T15:04:11.891Z,98242.00
2018-06-10T15:06:41.694Z,98243.00
2018-06-10T15:09:10.632Z,98247.00
2018-06-10T15:11:40.229Z,98241.00
2018-06-10T15:14:09.559Z,98239.00
2018-06-10T15:16:38.554Z,98234.00
2018-06-10T15:19:07.419Z,98238.00
2018-06-10T15:21:36.771Z,98235.00
2018-06-10T15:24:06.474Z,98236.00
2018-06-10T15:26:35.424Z,98233.00
2018-06-10T15:29:05.508Z,98224.00
2018-06-10T15:31:34.959Z,98228.00
2018-06-10T15:34:04.159Z,98231.00
2018-06-10T15:36:32.879Z,98231.00
2018-06-10T15:39:01.571Z,98230.00
2018-06-10T15:41:30.217Z,98233.00
2018-06-10T15:43:58.823Z,98228.00
2018-06-10T15:46:27.484Z,98231.00
2018-06-10T15:48:56.111Z,98224.00
2018-06-10T15:51:24.834Z,98223.00
2018-06-10T15:53:53.504Z,98225.00
2018-06-10T15:56:22.411Z,98221.00
2018-06-10T15:58:51.187Z,98215.00
2018-06-10T16:01:20.059Z,98215.00
2018-06-10T16:03:49.179Z,98210.00
2018-06-10T16:06:18.035Z,98208.00
2018-06-10T16:08:47.324Z,98212.00
2018-06-10T16:11:16.051Z,98211.00
2018-06-10T16:13:44.706Z,98209.00
2018-06-10T16:16:13.409Z,98206.00
2018-06-10T16:18:43.583Z,98202.00
2018-06-10T16:21:12.361Z,98203.00
2018-06-10T16:23:41.336Z,98202.00
2018-06-10T16:26:10.338Z,98203.00
2018-06-10T16:28:39.394Z,98201.00
2018-06-10T16:31:08.403Z,98200.00
2018-06-10T16:33:41.407Z,98199.00
2018-06-10T16:36:10.129Z,98197.00
2018-06-10T16:38:38.774Z,98197.00
2018-06-10T16:41:07.507Z,98201.00
2018-06-10T16:43:36.171Z,98200.00
2018-06-10T16:46:04.904Z,98199.00
2018-06-10T16:48:33.549Z,98199.00
2018-06-10T16:51:02.323Z,98203.00
2018-06-10T16:53:30.979Z,98200.00
2018-06-10T16:56:00.036Z,98200.00
2018-06-10T16:58:28.681Z,98200.00
2018-06-10T17:00:57.371Z,98200.00
2018-06-10T17:03:26.236Z,98202.00
2018-06-10T17:05:55.180Z,98202.00
2018-06-10T17:08:24.082Z,98199.00
2018-06-10T17:10:52.998Z,98197.00
2018-06-10T17:13:21.809Z,98194.00
2018-06-10T17:15:50.728Z,98190.00
2018-06-10T17:18:19.554Z,98185.00
2018-06-10T17:20:48.265Z,98188.00
2018-06-10T17:23:16.988Z,98192.00
2018-06-10T17:25:45.701Z,98188.00
2018-06-10T17:28:15.021Z,98188.00
2018-06-10T17:30:43.711Z,98187.00
2018-06-10T17:33:12.376Z,98189.00
2018-06-10T17:35:41.888Z,98185.00
2018-06-10T17:38:14.071Z,98183.00
2018-06-10T17:40:43.631Z,98185.00
2018-06-10T17:43:12.640Z,98188.00
2018-06-10T17:45:41.653Z,98186.00
2018-06-10T17:48:10.630Z,98186.00
2018-06-10T17:50:39.615Z,98190.00
2018-06-10T17:53:08.596Z,98197.00
2018-06-10T17:55:37.468Z,98199.00
2018-06-10T17:58:22.278Z,98202.00
2018-06-10T18:00:51.308Z,98206.00
2018-06-10T18:03:20.323Z,98212.00
2018-06-10T18:05:49.283Z,98226.00
2018-06-10T18:08:18.328Z,98226.00
2018-06-10T18:10:47.386Z,98224.00
2018-06-10T18:13:17.263Z,98222.00
2018-06-10T18:15:46.148Z,98221.00
2018-06-10T18:18:14.939Z,98219.00
2018-06-10T18:20:44.446Z,98221.00
2018-06-10T18:23:13.185Z,98229.00
2018-06-10T18:25:42.089Z,98228.00
2018-06-10T18:28:11.211Z,98229.00
2018-06-10T18:30:40.293Z,98223.00
2018-06-10T18:33:10.045Z,98223.00
2018-06-10T18:35:38.723Z,98222.00
2018-06-10T18:38:07.483Z,98226.00
2018-06-10T18:40:36.235Z,98222.00
2018-06-10T18:43:04.883Z,98228.00
2018-06-10T18:45:34.326Z,98239.00
2018-06-10T18:48:03.404Z,98240.00
2018-06-10T18:50:32.084Z,98243.00
2018-06-10T18:53:00.715Z,98255.00
2018-06-10T18:55:30.078Z,98253.00
2018-06-10T18:57:59.023Z,98253.00
2018-06-10T19:00:27.975Z,98255.00
2018-06-10T19:02:57.053Z,98256.00
2018-06-10T19:05:25.965Z,98262.00
2018-06-10T19:07:54.589Z,98265.00
2018-06-10T19:10:23.359Z,98274.00
2018-06-10T19:12:52.014Z,98273.00
2018-06-10T19:15:20.776Z,98280.00
2018-06-10T19:17:49.723Z,98282.00
2018-06-10T19:20:19.436Z,98289.00
2018-06-10T19:22:49.681Z,98289.00
2018-06-10T19:25:19.493Z,98293.00
2018-06-10T19:27:48.189Z,98300.00
2018-06-10T19:30:16.976Z,98302.00
2018-06-10T19:32:45.716Z,98302.00
2018-06-10T19:35:14.397Z,98305.00
2018-06-10T19:37:43.556Z,98303.00
2018-06-10T19:40:12.559Z,98306.00
2018-06-10T19:42:41.869Z,98310.00
2018-06-10T19:45:10.960Z,98309.00
2018-06-10T19:47:39.976Z,98315.00
2018-06-10T19:50:09.724Z,98315.00
2018-06-10T19:52:38.788Z,98310.00
2018-06-10T19:55:07.751Z,98311.00
2018-06-10T19:57:36.736Z,98311.00
2018-06-10T20:00:05.923Z,98307.00
2018-06-10T20:02:34.586Z,98304.00
2018-06-10T20:05:03.403Z,98300.00
2018-06-10T20:07:32.176Z,98300.00
2018-06-10T20:10:00.844Z,98294.00
2018-06-10T20:12:30.452Z,98301.00
2018-06-10T20:14:59.533Z,98307.00
2018-06-10T20:17:28.364Z,98302.00
2018-06-10T20:19:57.361Z,98302.00
2018-06-10T20:22:26.380Z,98300.00
2018-06-10T20:24:56.666Z,98295.00
2018-06-10T20:27:25.733Z,98298.00
2018-06-10T20:29:55.472Z,98296.00
2018-06-10T20:32:24.509Z,98296.00
2018-06-10T20:34:53.596Z,98293.00
2018-06-10T20:37:22.598Z,98294.00
2018-06-10T20:39:52.521Z,98289.00
2018-06-10T20:42:21.206Z,98298.00
2018-06-10T20:44:49.978Z,98303.00
2018-06-10T20:47:18.711Z,98309.00
2018-06-10T20:49:48.050Z,98309.00
2018-06-10T20:52:17.086Z,98320.00
2018-06-10T20:54:45.966Z,98306.00
2018-06-10T20:57:14.884Z,98310.00
2018-06-10T20:59:43.796Z,98320.00
2018-06-10T21:02:13.349Z,98317.00
2018-06-10T21:04:43.083Z,98323.00
2018-06-10T21:07:12.767Z,98313.00
2018-06-10T21:09:42.282Z,98309.00
2018-06-10T21:12:11.764Z,98317.00
2018-06-10T21:14:40.703Z,98313.00
2018-06-10T21:17:10.900Z,98306.00
2018-06-10T21:19:39.699Z,98312.00
2018-06-10T21:22:08.373Z,98321.00
2018-06-10T21:24:36.964Z,98320.00
2018-06-10T21:27:06.265Z,98324.00
2018-06-10T21:29:35.021Z,98321.00
2018-06-10T21:32:49.465Z,98322.00
2018-06-10T21:35:25.576Z,98324.00
2018-06-10T21:37:56.291Z,98322.00
2018-06-10T21:40:26.851Z,98324.00
2018-06-10T21:42:55.519Z,98327.00
2018-06-10T21:45:24.151Z,98332.00
2018-06-10T21:47:52.824Z,98339.00
2018-06-10T21:50:21.625Z,98340.00
2018-06-10T21:52:50.547Z,98343.00
2018-06-10T21:55:19.398Z,98343.00
2018-06-10T21:57:48.377Z,98349.00
2018-06-10T22:00:26.391Z,98349.00
2018-06-10T22:02:55.063Z,98345.00
2018-06-10T22:05:23.823Z,98346.00
2018-06-10T22:07:52.471Z,98355.00
2018-06-10T22:10:22.328Z,98357.00
2018-06-10T22:12:51.235Z,98356.00
2018-06-10T22:15:20.081Z,98365.00
2018-06-10T22:17:50.041Z,98365.00
2018-06-10T22:20:19.113Z,98377.00
2018-06-10T22:22:48.018Z,98372.00
2018-06-10T22:25:16.939Z,98380.00
2018-06-10T22:27:45.847Z,98378.00
2018-06-10T22:30:14.835Z,98369.00
2018-06-10T22:32:43.573Z,98367.00
2018-06-10T22:35:12.231Z,98370.00
2018-06-10T22:37:40.797Z,98364.00
2018-06-10T22:40:09.403Z,98369.00
2018-06-10T22:42:37.993Z,98372.00
2018-06-10T22:45:07.573Z,98368.00
2018-06-10T22:47:36.183Z,98365.00
2018-06-10T22:50:04.798Z,98361.00
2018-06-10T22:52:35.451Z,98358.00
2018-06-10T22:55:04.316Z,98360.00
2018-06-10T22:57:33.263Z,98360.00
2018-06-10T23:00:02.186Z,98362.00
2018-06-10T23:02:30.944Z,98362.00
2018-06-10T23:04:59.619Z,98365.00
2018-06-10T23:07:28.298Z,98371.00
2018-06-10T23:09:56.925Z,98373.00
2018-06-10T23:12:25.606Z,98378.00
2018-06-10T23:14:54.483Z,98376.00
2018-06-10T23:17:23.414Z,98375.00
2018-06-10T23:19:52.283Z,98377.00
2018-06-10T23:22:21.168Z,98381.00
2018-06-10T23:24:50.046Z,98379.00
2018-06-10T23:27:18.907Z,98379.00
2018-06-10T23:29:47.798Z,98378.00
2018-06-10T23:32:17.676Z,98374.00
2018-06-10T23:34:46.306Z,98373.00
2018-06-10T23:37:14.958Z,98373.00
2018-06-10T23:39:43.519Z,98374.00
2018-06-10T23:42:12.263Z,98374.00
2018-06-10T23:44:41.104Z,98373.00
2018-06-10T23:47:09.975Z,98364.00
2018-06-10T23:49:38.840Z,98365.00
2018-06-10T23:52:07.628Z,98372.00
2018-06-10T23:54:36.295Z,98364.00
2018-06-10T23:57:04.896Z,98356.00
2018-06-10T23:59:33.500Z,98358.00
